createdAt,value
2019-01-23T00:21:47.416Z,-9.15
2019-01-23T00:50:25.974Z,-9.33
2019-01-23T01:18:58.757Z,-9.4
2019-01-23T01:47:32.997Z,-9.59
2019-01-23T02:16:08.454Z,-9.68
2019-01-23T02:44:44.562Z,-9.81
2019-01-23T03:13:21.701Z,-10.13
2019-01-23T03:41:53.903Z,-10.1
2019-01-23T04:10:31.105Z,-10.07
2019-01-23T04:39:01.476Z,-10.2
2019-01-23T05:07:36.912Z,-10.13
2019-01-23T05:36:14.875Z,-9.97
2019-01-23T06:04:49.242Z,-9.96
2019-01-23T06:33:24.665Z,-9.94
2019-01-23T07:02:02.076Z,-9.75
2019-01-23T07:30:39.163Z,-9.8
2019-01-23T07:59:16.457Z,-9.47
2019-01-23T08:27:55.844Z,-8.94
2019-01-23T08:56:36.458Z,-8.23
2019-01-23T09:25:17.652Z,-7.62
2019-01-23T09:53:56.354Z,-6.59
2019-01-23T10:22:37.875Z,-5.94
2019-01-23T10:51:15.080Z,-5.42
2019-01-23T11:19:53.791Z,-4.56
2019-01-23T11:48:36.741Z,-3.83
2019-01-23T12:17:13.894Z,-3.29
2019-01-23T12:45:52.201Z,-3.17
2019-01-23T13:14:29.821Z,-3.13
2019-01-23T13:43:09.054Z,-3.07
2019-01-23T14:11:43.127Z,-3.24
2019-01-23T14:40:15.753Z,-3.53
2019-01-23T15:08:44.992Z,-3.98
2019-01-23T15:37:20.157Z,-4.5
2019-01-23T16:05:51.029Z,-5
2019-01-23T16:34:20.331Z,-5.62
2019-01-23T17:02:51.335Z,-6.47
2019-01-23T17:31:26.564Z,-6.9
2019-01-23T17:59:57.635Z,-7.18
2019-01-23T18:28:35.438Z,-7.13
2019-01-23T18:57:06.560Z,-7.13
2019-01-23T19:25:48.716Z,-6.35
2019-01-23T19:54:25.756Z,-6.17
2019-01-23T20:23:00.585Z,-6.28
2019-01-23T20:51:37.671Z,-6.4
2019-01-23T21:20:09.731Z,-6.56
2019-01-23T21:48:45.210Z,-6.74
2019-01-23T22:17:24.777Z,-6.61
2019-01-23T22:45:56.262Z,-6.84
2019-01-23T23:14:31.565Z,-6.77
2019-01-23T23:43:03.322Z,-6.62
